createdAt,value
2018-03-01T00:02:23.973Z,1011.42
2018-03-01T00:07:25.553Z,1011.31
2018-03-01T00:12:24.801Z,1011.23
2018-03-01T00:17:20.978Z,1011.23
2018-03-01T00:22:22.589Z,1011.23
2018-03-01T00:32:24.749Z,1011.29
2018-03-01T00:37:24.599Z,1011.16
2018-03-01T00:42:24.299Z,1011.14
2018-03-01T00:47:20.018Z,1011.10
2018-03-01T00:52:20.171Z,1011.07
2018-03-01T00:57:19.005Z,1010.89
2018-03-01T01:07:24.217Z,1010.88
2018-03-01T01:12:20.873Z,1010.89
2018-03-01T01:17:21.576Z,1010.75
2018-03-01T01:22:21.450Z,1010.64
2018-03-01T01:27:22.151Z,1010.68
2018-03-01T01:32:21.788Z,1010.69
2018-03-01T01:37:16.766Z,1010.52
2018-03-01T01:42:14.155Z,1010.41
2018-03-01T01:47:12.444Z,1010.55
2018-03-01T01:52:15.602Z,1010.50
2018-03-01T01:57:12.588Z,1010.29
2018-03-01T02:02:12.423Z,1010.43
2018-03-01T02:07:11.998Z,1010.30
2018-03-01T02:12:10.701Z,1010.19
2018-03-01T02:17:07.549Z,1010.02
2018-03-01T02:22:09.476Z,1009.94
2018-03-01T02:27:08.341Z,1009.82
2018-03-01T02:32:04.048Z,1009.77
2018-03-01T02:37:04.587Z,1009.71
2018-03-01T02:42:03.999Z,1009.73
2018-03-01T02:47:04.148Z,1009.60
2018-03-01T02:52:03.465Z,1009.58
2018-03-01T02:56:58.751Z,1009.48
2018-03-01T03:01:58.456Z,1009.45
2018-03-01T03:06:59.501Z,1009.45
2018-03-01T03:11:59.081Z,1009.36
2018-03-01T03:16:53.506Z,1009.27
2018-03-01T03:21:53.493Z,1009.16
2018-03-01T03:26:52.062Z,1009.14
2018-03-01T03:31:53.783Z,1009.18
2018-03-01T03:41:58.121Z,1008.93
2018-03-01T03:46:57.675Z,1008.90
2018-03-01T03:51:54.300Z,1008.85
2018-03-01T03:56:51.391Z,1008.84
2018-03-01T04:01:48.713Z,1008.95
2018-03-01T04:06:52.418Z,1008.86
2018-03-01T04:11:48.809Z,1008.95
2018-03-01T04:16:46.300Z,1008.70
2018-03-01T04:21:45.806Z,1008.72
2018-03-01T04:26:44.590Z,1008.72
2018-03-01T04:36:46.017Z,1008.69
2018-03-01T04:41:45.971Z,1008.75
2018-03-01T04:46:47.904Z,1008.69
2018-03-01T04:51:43.562Z,1008.76
2018-03-01T04:56:44.032Z,1008.79
2018-03-01T05:01:45.249Z,1008.64
2018-03-01T05:06:41.695Z,1008.52
2018-03-01T05:11:42.703Z,1008.29
2018-03-01T05:21:46.181Z,1008.08
2018-03-01T05:26:47.163Z,1008.21
2018-03-01T05:31:44.048Z,1008.14
2018-03-01T05:36:48.485Z,1007.95
2018-03-01T05:41:48.574Z,1008.08
2018-03-01T05:46:44.036Z,1007.94
2018-03-01T05:51:44.132Z,1008.11
2018-03-01T05:56:40.564Z,1008.07
2018-03-01T06:01:35.544Z,1008.07
2018-03-01T06:06:32.188Z,1008.09
2018-03-01T06:11:30.594Z,1008.29
2018-03-01T06:21:36.216Z,1008.40
2018-03-01T06:26:32.294Z,1008.31
2018-03-01T06:31:29.263Z,1008.57
2018-03-01T06:36:28.456Z,1008.62
2018-03-01T06:41:25.339Z,1008.36
2018-03-01T06:46:25.654Z,1008.34
2018-03-01T06:51:26.532Z,1008.37
2018-03-01T06:56:22.122Z,1008.13
2018-03-01T07:01:22.788Z,1008.00
2018-03-01T07:06:22.156Z,1007.75
2018-03-01T07:11:25.657Z,1007.82
2018-03-01T07:16:23.544Z,1007.70
2018-03-01T07:21:24.419Z,1007.55
2018-03-01T07:26:24.715Z,1007.66
2018-03-01T07:31:25.283Z,1007.69
2018-03-01T07:36:25.440Z,1007.73
2018-03-01T07:46:28.122Z,1007.73
2018-03-01T07:51:26.750Z,1007.64
2018-03-01T07:56:23.732Z,1007.50
2018-03-01T08:01:22.888Z,1007.41
2018-03-01T08:06:21.460Z,1007.53
2018-03-01T08:11:21.891Z,1007.58
2018-03-01T08:16:18.282Z,1007.46
2018-03-01T08:21:13.890Z,1007.54
2018-03-01T08:26:13.648Z,1007.53
2018-03-01T08:36:14.769Z,1007.28
2018-03-01T08:41:14.602Z,1007.18
2018-03-01T08:46:11.922Z,1007.23
2018-03-01T08:51:13.683Z,1007.20
2018-03-01T08:56:10.600Z,1007.00
2018-03-01T09:01:06.801Z,1007.05
2018-03-01T09:06:07.444Z,1006.86
2018-03-01T09:11:06.151Z,1006.82
2018-03-01T09:16:05.092Z,1006.68
2018-03-01T09:21:00.762Z,1006.82
2018-03-01T09:26:01.844Z,1006.49
2018-03-01T09:31:00.966Z,1006.56
2018-03-01T09:36:00.332Z,1006.36
2018-03-01T09:40:54.820Z,1006.41
2018-03-01T09:45:51.248Z,1006.31
2018-03-01T09:50:48.653Z,1006.36
2018-03-01T09:55:49.957Z,1006.16
2018-03-01T10:00:47.730Z,1006.09
2018-03-01T10:05:48.203Z,1006.22
2018-03-01T10:10:46.723Z,1005.93
2018-03-01T10:15:45.461Z,1005.98
2018-03-01T10:20:40.397Z,1005.86
2018-03-01T10:25:42.000Z,1005.73
2018-03-01T10:30:40.519Z,1005.77
2018-03-01T10:35:35.296Z,1005.58
2018-03-01T10:40:35.722Z,1005.58
2018-03-01T10:45:35.108Z,1005.38
2018-03-01T10:50:35.024Z,1005.28
2018-03-01T10:55:34.935Z,1005.28
2018-03-01T11:00:34.215Z,1005.29
2018-03-01T11:05:34.506Z,1005.35
2018-03-01T11:10:34.774Z,1004.92
2018-03-01T11:15:35.311Z,1004.76
2018-03-01T11:20:38.153Z,1004.68
2018-03-01T11:25:38.056Z,1004.71
2018-03-01T11:30:33.180Z,1004.56
2018-03-01T11:35:32.480Z,1004.54
2018-03-01T11:40:27.119Z,1004.61
2018-03-01T11:45:26.662Z,1004.69
2018-03-01T11:50:23.170Z,1004.70
2018-03-01T11:55:23.301Z,1004.43
2018-03-01T12:00:22.636Z,1004.31
2018-03-01T12:05:21.705Z,1004.22
2018-03-01T12:10:20.867Z,1004.10
2018-03-01T12:15:19.772Z,1004.09
2018-03-01T12:20:19.487Z,1004.05
2018-03-01T12:25:19.911Z,1003.97
2018-03-01T12:30:20.095Z,1003.94
2018-03-01T12:35:18.626Z,1003.93
2018-03-01T12:40:18.448Z,1003.56
2018-03-01T12:45:17.939Z,1003.60
2018-03-01T12:50:17.647Z,1003.69
2018-03-01T12:55:16.172Z,1003.56
2018-03-01T13:00:10.741Z,1003.53
2018-03-01T13:05:12.117Z,1003.38
2018-03-01T13:10:11.447Z,1003.17
2018-03-01T13:15:07.621Z,1003.42
2018-03-01T13:20:07.877Z,1003.16
2018-03-01T13:25:06.429Z,1003.19
2018-03-01T13:30:06.060Z,1003.23
2018-03-01T13:35:04.455Z,1002.90
2018-03-01T13:40:04.295Z,1002.86
2018-03-01T13:45:03.945Z,1002.76
2018-03-01T13:49:59.443Z,1002.88
2018-03-01T13:55:00.131Z,1002.63
2018-03-01T14:00:00.580Z,1002.56
2018-03-01T14:05:00.463Z,1002.51
2018-03-01T14:10:01.418Z,1002.49
2018-03-01T14:20:01.851Z,1002.51
2018-03-01T14:24:56.770Z,1002.31
2018-03-01T14:29:56.892Z,1002.30
2018-03-01T14:34:57.453Z,1002.18
2018-03-01T14:39:55.740Z,1002.04
2018-03-01T14:44:56.211Z,1002.05
2018-03-01T14:49:55.286Z,1002.10
2018-03-01T14:54:55.125Z,1001.83
2018-03-01T15:04:57.350Z,1001.94
2018-03-01T15:09:53.834Z,1002.00
2018-03-01T15:14:50.230Z,1001.82
2018-03-01T15:19:50.509Z,1002.00
2018-03-01T15:24:51.103Z,1001.65
2018-03-01T15:29:47.350Z,1001.75
2018-03-01T15:34:47.943Z,1001.76
2018-03-01T15:39:46.546Z,1001.57
2018-03-01T15:44:47.817Z,1001.55
2018-03-01T15:49:47.182Z,1001.60
2018-03-01T15:54:47.644Z,1001.45
2018-03-01T15:59:43.610Z,1001.41
2018-03-01T16:04:43.647Z,1001.23
2018-03-01T16:09:41.910Z,1001.29
2018-03-01T16:14:42.049Z,1001.16
2018-03-01T16:19:41.827Z,1001.35
2018-03-01T16:24:41.783Z,1001.30
2018-03-01T16:29:40.285Z,1001.29
2018-03-01T16:34:38.717Z,1001.25
2018-03-01T16:39:37.645Z,1001.24
2018-03-01T16:44:39.150Z,1001.17
2018-03-01T16:49:38.796Z,1001.05
2018-03-01T16:54:40.106Z,1001.24
2018-03-01T16:59:38.673Z,1001.11
2018-03-01T17:04:38.020Z,1001.08
2018-03-01T17:09:38.398Z,1001.18
2018-03-01T17:14:38.201Z,1001.30
2018-03-01T17:19:33.513Z,1001.07
2018-03-01T17:24:35.967Z,1000.98
2018-03-01T17:29:35.371Z,1001.15
2018-03-01T17:34:36.158Z,1001.12
2018-03-01T17:39:35.714Z,1001.21
2018-03-01T17:49:37.406Z,1001.39
2018-03-01T17:54:39.478Z,1001.36
2018-03-01T17:59:38.591Z,1001.53
2018-03-01T18:04:38.172Z,1001.57
2018-03-01T18:09:37.683Z,1001.62
2018-03-01T18:14:38.063Z,1001.36
2018-03-01T18:19:37.322Z,1001.27
2018-03-01T18:24:36.718Z,1001.25
2018-03-01T18:29:32.619Z,1001.16
2018-03-01T18:34:31.609Z,1001.23
2018-03-01T18:39:32.204Z,1001.26
2018-03-01T18:49:27.484Z,1001.25
2018-03-01T18:54:27.844Z,1001.29
2018-03-01T18:59:28.194Z,1001.22
2018-03-01T19:04:26.299Z,1001.18
2018-03-01T19:09:25.847Z,1001.19
2018-03-01T19:14:26.250Z,1001.07
2018-03-01T19:19:25.901Z,1001.09
2018-03-01T19:24:24.187Z,1001.08
2018-03-01T19:29:24.047Z,1001.05
2018-03-01T19:34:19.324Z,1000.96
2018-03-01T19:39:14.479Z,1000.92
2018-03-01T19:44:13.991Z,1000.89
2018-03-01T19:49:09.566Z,1001.00
2018-03-01T19:54:08.661Z,1000.89
2018-03-01T19:59:09.257Z,1000.85
2018-03-01T20:04:08.293Z,1000.85
2018-03-01T20:09:07.584Z,1000.75
2018-03-01T20:24:13.625Z,1000.56
2018-03-01T20:29:08.347Z,1000.59
2018-03-01T20:34:07.846Z,1000.59
2018-03-01T20:39:08.201Z,1000.68
2018-03-01T20:44:03.417Z,1000.80
2018-03-01T20:49:03.059Z,1000.55
2018-03-01T20:54:02.857Z,1000.68
2018-03-01T20:59:02.921Z,1000.62
2018-03-01T21:03:57.417Z,1000.62
2018-03-01T21:08:57.059Z,1000.36
2018-03-01T21:13:56.547Z,1000.35
2018-03-01T21:18:55.688Z,1000.39
2018-03-01T21:23:51.961Z,1000.39
2018-03-01T21:28:52.022Z,1000.31
2018-03-01T21:33:52.199Z,1000.13
2018-03-01T21:38:48.438Z,1000.07
2018-03-01T21:43:48.278Z,999.97
2018-03-01T21:48:49.301Z,999.85
2018-03-01T21:53:49.644Z,999.70
2018-03-01T21:58:48.069Z,999.73
2018-03-01T22:08:48.419Z,999.76
2018-03-01T22:13:43.619Z,999.86
2018-03-01T22:18:44.610Z,999.85
2018-03-01T22:23:40.299Z,999.80
2018-03-01T22:28:40.446Z,999.60
2018-03-01T22:38:36.426Z,999.66
2018-03-01T22:43:35.833Z,999.63
2018-03-01T22:48:35.358Z,999.57
2018-03-01T22:53:34.956Z,999.56
2018-03-01T22:58:30.518Z,999.40
2018-03-01T23:03:32.710Z,999.61
2018-03-01T23:08:28.850Z,999.61
2018-03-01T23:13:28.832Z,999.68
2018-03-01T23:18:28.884Z,999.60
2018-03-01T23:23:29.305Z,999.68
2018-03-01T23:33:30.809Z,999.62
2018-03-01T23:38:33.525Z,999.66
2018-03-01T23:43:32.672Z,999.49
2018-03-01T23:48:32.873Z,999.43
2018-03-01T23:53:28.531Z,999.33
